Time;durP1;ratioP1;P1;durP2;ratioP2;P2;SDS_P1;SDS_P2;PMS_P1;PMS_P2;Temp;Humidity;BMP_temperature;BMP_pressure;BME280_temperature;BME280_humidity;BME280_pressure;Samples;Min_cycle;Max_cycle;Signal;HPM_P1;HPM_P2
2024/01/18 00:00:18;;;;;;;0.90;0.90;;;-8.70;99.90;;;;;;5040677;28;20213;-78
2024/01/18 00:02:44;;;;;;;1.00;1.00;;;-8.80;99.90;;;;;;5040622;28;20191;-78
2024/01/18 00:05:09;;;;;;;0.90;0.90;;;-8.80;99.90;;;;;;5036932;28;20202;-79
2024/01/18 00:07:35;;;;;;;1.00;1.00;;;-8.80;99.90;;;;;;5051474;28;20674;-80
2024/01/18 00:10:01;;;;;;;0.93;0.93;;;-8.80;99.90;;;;;;5051819;28;20217;-79
2024/01/18 00:12:26;;;;;;;0.90;0.90;;;-8.90;99.90;;;;;;5046386;28;20194;-81
2024/01/18 00:14:52;;;;;;;0.90;0.90;;;-8.80;99.90;;;;;;5036111;28;20259;-78
2024/01/18 00:17:18;;;;;;;0.80;0.80;;;-8.80;99.90;;;;;;5035301;28;20222;-78
2024/01/18 00:19:52;;;;;;;0.90;0.90;;;-8.80;99.90;;;;;;5035436;28;20206;-78
2024/01/18 00:22:18;;;;;;;2.73;2.50;;;-8.80;99.90;;;;;;5035216;28;20198;-78
2024/01/18 00:24:48;;;;;;;0.90;0.90;;;-8.90;99.90;;;;;;5036016;28;20224;-78
2024/01/18 00:27:24;;;;;;;1.00;1.00;;;-8.90;99.90;;;;;;5035182;28;20201;-77
2024/01/18 00:30:10;;;;;;;0.90;0.90;;;-9.00;99.90;;;;;;5017522;28;20565;-78
2024/01/18 00:32:36;;;;;;;0.80;0.80;;;-9.10;99.90;;;;;;5016619;28;20210;-78
2024/01/18 00:35:02;;;;;;;0.90;0.90;;;-9.20;99.90;;;;;;5017573;28;20305;-78
2024/01/18 00:37:27;;;;;;;0.90;0.90;;;-9.30;99.90;;;;;;5017225;28;20202;-77
2024/01/18 00:39:53;;;;;;;1.00;1.00;;;-9.30;99.90;;;;;;5034745;28;20871;-78
2024/01/18 00:42:19;;;;;;;0.90;0.90;;;-9.20;99.90;;;;;;5034964;28;20243;-77
2024/01/18 00:44:44;;;;;;;1.00;1.00;;;-9.40;99.90;;;;;;5035096;28;20186;-77
2024/01/18 00:47:10;;;;;;;0.90;0.90;;;-9.40;99.90;;;;;;5017494;28;20197;-78
2024/01/18 00:49:35;;;;;;;0.90;0.90;;;-9.50;99.90;;;;;;5035096;28;20198;-77
2024/01/18 00:52:02;;;;;;;0.87;0.87;;;-9.60;99.90;;;;;;5017040;28;20213;-77
2024/01/18 00:54:28;;;;;;;1.00;1.00;;;-9.70;99.90;;;;;;5034375;28;20201;-77
2024/01/18 00:56:53;;;;;;;3.87;3.47;;;-9.70;99.90;;;;;;5034285;28;20902;-79
2024/01/18 00:59:19;;;;;;;1.00;1.00;;;-9.80;99.90;;;;;;5016126;28;20210;-78
2024/01/18 01:01:45;;;;;;;0.90;0.90;;;-9.80;99.90;;;;;;5034049;28;20201;-79
2024/01/18 01:04:11;;;;;;;1.00;1.00;;;-9.70;99.90;;;;;;5033994;28;20419;-78
2024/01/18 01:06:37;;;;;;;0.90;0.90;;;-9.70;99.90;;;;;;5032537;28;20198;-78
2024/01/18 01:09:03;;;;;;;0.97;0.97;;;-9.70;99.90;;;;;;5034449;28;20190;-79
2024/01/18 01:11:29;;;;;;;1.00;1.00;;;-9.60;99.90;;;;;;5032549;28;20759;-77
2024/01/18 01:13:55;;;;;;;1.00;1.00;;;-9.60;99.90;;;;;;5032912;28;20202;-78
2024/01/18 01:16:20;;;;;;;0.93;0.93;;;-9.60;99.90;;;;;;5033450;28;20197;-78
2024/01/18 01:18:46;;;;;;;0.90;0.90;;;-9.50;99.90;;;;;;5033937;28;20697;-77
2024/01/18 01:21:12;;;;;;;1.00;1.00;;;-9.60;99.90;;;;;;5033505;28;20201;-76
2024/01/18 01:23:41;;;;;;;1.00;1.00;;;-9.60;99.90;;;;;;5033226;28;20231;-77
2024/01/18 01:26:08;;;;;;;1.00;1.00;;;-9.60;99.90;;;;;;5033235;28;20191;-77
2024/01/18 01:28:34;;;;;;;0.90;0.90;;;-9.60;99.90;;;;;;5015574;28;20289;-77
2024/01/18 01:31:00;;;;;;;0.90;0.90;;;-9.70;99.90;;;;;;5033719;28;20277;-77
2024/01/18 01:33:26;;;;;;;1.00;1.00;;;-9.80;99.90;;;;;;5031712;28;20289;-78
2024/01/18 01:35:51;;;;;;;1.00;1.00;;;-9.90;99.90;;;;;;5016031;28;20204;-77
2024/01/18 01:38:17;;;;;;;1.00;1.00;;;-9.90;99.90;;;;;;5015532;28;20203;-77
2024/01/18 01:40:43;;;;;;;1.00;1.00;;;-9.90;99.90;;;;;;5033569;28;20195;-78
2024/01/18 01:43:10;;;;;;;1.20;1.20;;;-9.90;99.90;;;;;;5033312;28;20243;-78
2024/01/18 01:45:35;;;;;;;1.00;1.00;;;-10.00;99.90;;;;;;5033318;28;20201;-77
2024/01/18 01:48:01;;;;;;;1.00;1.00;;;-10.00;99.90;;;;;;5015493;28;20674;-77
2024/01/18 01:50:27;;;;;;;0.90;0.90;;;-10.10;99.90;;;;;;5033175;28;20535;-77
2024/01/18 01:52:53;;;;;;;0.80;0.80;;;-10.20;99.90;;;;;;5015198;28;20549;-76
2024/01/18 01:55:19;;;;;;;0.90;0.90;;;-10.40;99.90;;;;;;5015618;28;20204;-77
2024/01/18 01:57:47;;;;;;;1.00;1.00;;;-10.40;99.90;;;;;;5032891;28;20277;-77
2024/01/18 02:00:14;;;;;;;0.90;0.90;;;-10.50;99.90;;;;;;5031888;28;20260;-77
2024/01/18 02:02:41;;;;;;;1.00;1.00;;;-10.40;99.90;;;;;;5033000;28;20198;-77
2024/01/18 02:05:08;;;;;;;1.00;1.00;;;-10.60;99.90;;;;;;5033370;28;20194;-77
2024/01/18 02:07:38;;;;;;;1.00;1.00;;;-10.60;99.90;;;;;;5032929;28;20198;-77
2024/01/18 02:10:05;;;;;;;0.90;0.90;;;-10.60;99.90;;;;;;5032330;28;20713;-77
2024/01/18 02:12:32;;;;;;;1.00;1.00;;;-10.60;99.90;;;;;;5030785;28;20206;-77
2024/01/18 02:14:58;;;;;;;1.00;1.00;;;-10.60;99.90;;;;;;5032096;28;20261;-77
2024/01/18 02:17:24;;;;;;;1.00;1.00;;;-10.70;99.90;;;;;;5015115;28;20292;-78
2024/01/18 02:19:49;;;;;;;1.00;1.00;;;-10.90;99.90;;;;;;5032986;28;20294;-76
2024/01/18 02:22:16;;;;;;;1.00;1.00;;;-10.80;99.90;;;;;;5032208;28;20205;-76
2024/01/18 02:24:49;;;;;;;1.00;1.00;;;-10.80;99.90;;;;;;5032203;28;20213;-75
2024/01/18 02:27:15;;;;;;;1.00;1.00;;;-10.80;99.90;;;;;;5032905;28;20194;-77
2024/01/18 02:29:41;;;;;;;1.00;1.00;;;-10.90;99.90;;;;;;5032834;28;20190;-77
2024/01/18 02:32:07;;;;;;;0.90;0.90;;;-10.90;99.90;;;;;;5032674;28;20190;-77
2024/01/18 02:34:38;;;;;;;0.90;0.90;;;-11.00;99.90;;;;;;5033254;28;20190;-81
2024/01/18 02:37:05;;;;;;;0.90;0.90;;;-11.10;99.90;;;;;;5019592;28;20231;-81
2024/01/18 02:39:31;;;;;;;0.90;0.90;;;-11.10;99.90;;;;;;5036867;28;20270;-79
2024/01/18 02:41:57;;;;;;;0.97;0.97;;;-11.00;99.90;;;;;;5034227;28;20221;-81
2024/01/18 02:44:25;;;;;;;0.90;0.90;;;-11.00;99.90;;;;;;5017893;28;20221;-80
2024/01/18 02:46:50;;;;;;;1.07;1.07;;;-11.10;99.90;;;;;;5033498;28;20198;-80
2024/01/18 02:49:16;;;;;;;1.00;1.00;;;-11.10;99.90;;;;;;5031484;28;20733;-80
2024/01/18 02:51:42;;;;;;;0.90;0.90;;;-11.10;99.90;;;;;;5033506;28;20256;-80
2024/01/18 02:54:07;;;;;;;1.00;1.00;;;-11.10;99.90;;;;;;5033507;28;20352;-80
2024/01/18 02:56:33;;;;;;;1.00;1.00;;;-11.20;99.90;;;;;;5030083;28;20198;-81
2024/01/18 02:58:58;;;;;;;0.93;0.93;;;-11.20;99.90;;;;;;5031547;28;20197;-81
2024/01/18 03:01:24;;;;;;;0.90;0.90;;;-11.10;99.90;;;;;;5031298;28;20198;-81
2024/01/18 03:03:50;;;;;;;0.90;0.90;;;-11.10;99.90;;;;;;5031375;28;20193;-82
2024/01/18 03:06:15;;;;;;;3.03;2.00;;;-11.10;99.90;;;;;;5031285;28;20198;-81
2024/01/18 03:08:41;;;;;;;1.00;1.00;;;-11.20;99.90;;;;;;5031914;28;20316;-81
2024/01/18 03:11:07;;;;;;;1.00;1.00;;;-11.00;99.90;;;;;;5031160;28;20306;-79
2024/01/18 03:13:32;;;;;;;1.03;1.03;;;-11.10;99.90;;;;;;5031101;28;20205;-78
2024/01/18 03:15:58;;;;;;;1.07;1.07;;;-11.20;99.90;;;;;;5031292;28;20199;-80
2024/01/18 03:18:24;;;;;;;0.90;0.90;;;-11.20;99.90;;;;;;5031294;28;20217;-79
2024/01/18 03:20:49;;;;;;;0.90;0.90;;;-11.10;99.90;;;;;;5013927;28;20578;-79
2024/01/18 03:23:16;;;;;;;1.00;1.00;;;-11.20;99.90;;;;;;5031390;28;20198;-79
2024/01/18 03:25:41;;;;;;;0.90;0.90;;;-11.20;99.90;;;;;;5031521;28;20190;-79
2024/01/18 03:28:07;;;;;;;1.07;1.07;;;-11.30;99.90;;;;;;5031178;28;20598;-79
2024/01/18 03:30:33;;;;;;;1.00;1.00;;;-11.40;99.90;;;;;;5031208;28;20202;-80
2024/01/18 03:32:58;;;;;;;1.00;1.00;;;-11.30;99.90;;;;;;5031252;28;20194;-80
2024/01/18 03:35:24;;;;;;;0.90;0.90;;;-11.30;99.90;;;;;;5031042;28;20633;-79
2024/01/18 03:37:50;;;;;;;1.00;1.00;;;-11.30;99.90;;;;;;5016603;28;20662;-80
2024/01/18 03:40:15;;;;;;;1.00;1.00;;;-11.30;99.90;;;;;;5034906;28;20206;-80
2024/01/18 03:42:41;;;;;;;1.00;1.00;;;-11.40;99.90;;;;;;5035313;28;20198;-80
2024/01/18 03:45:07;;;;;;;1.00;1.00;;;-11.40;99.90;;;;;;5036024;28;20226;-77
2024/01/18 03:47:33;;;;;;;1.00;1.00;;;-11.40;99.90;;;;;;5035964;28;20706;-77
2024/01/18 03:49:59;;;;;;;1.00;1.00;;;-11.40;99.90;;;;;;5035376;28;20206;-77
2024/01/18 03:52:25;;;;;;;0.93;0.93;;;-11.50;99.90;;;;;;5036056;28;20333;-78
2024/01/18 03:54:50;;;;;;;1.00;1.00;;;-11.60;99.90;;;;;;5018632;28;20305;-77
2024/01/18 03:57:16;;;;;;;0.87;0.87;;;-11.70;99.90;;;;;;5036005;28;20553;-77
2024/01/18 03:59:44;;;;;;;0.87;0.87;;;-11.80;99.90;;;;;;5036152;28;20600;-77
2024/01/18 04:02:10;;;;;;;1.00;1.00;;;-11.90;99.90;;;;;;5035019;28;20255;-77
2024/01/18 04:04:36;;;;;;;1.00;1.00;;;-12.10;99.90;;;;;;5032849;28;20557;-76
2024/01/18 04:07:02;;;;;;;0.97;0.97;;;-12.00;99.90;;;;;;5036308;28;20190;-76
2024/01/18 04:09:27;;;;;;;1.00;1.00;;;-12.00;99.90;;;;;;5035499;28;20240;-77
2024/01/18 04:11:54;;;;;;;1.00;1.00;;;-12.10;99.90;;;;;;5017767;28;20565;-77
2024/01/18 04:14:20;;;;;;;1.00;1.00;;;-12.10;99.90;;;;;;5035384;28;20198;-77
2024/01/18 04:16:46;;;;;;;1.00;1.00;;;-12.20;99.90;;;;;;5035772;28;20205;-77
2024/01/18 04:19:11;;;;;;;1.00;1.00;;;-12.30;99.90;;;;;;5035266;28;20636;-77
2024/01/18 04:21:38;;;;;;;0.93;0.93;;;-12.20;99.90;;;;;;5035197;28;20213;-78
2024/01/18 04:24:04;;;;;;;0.90;0.90;;;-12.30;99.90;;;;;;5035424;28;20260;-77
2024/01/18 04:26:33;;;;;;;1.00;1.00;;;-12.30;99.90;;;;;;5034813;28;20213;-77
2024/01/18 04:29:00;;;;;;;1.00;1.00;;;-12.40;99.90;;;;;;5016947;28;20205;-77
2024/01/18 04:31:25;;;;;;;1.00;1.00;;;-12.40;99.90;;;;;;5034584;28;20195;-77
2024/01/18 04:33:51;;;;;;;1.00;1.00;;;-12.40;99.90;;;;;;5034693;28;20209;-76
2024/01/18 04:36:17;;;;;;;1.00;1.00;;;-12.50;99.90;;;;;;5038600;28;20202;-76
2024/01/18 04:38:42;;;;;;;1.00;1.00;;;-12.60;99.90;;;;;;5038814;28;20198;-77
2024/01/18 04:41:08;;;;;;;1.00;1.00;;;-12.60;99.90;;;;;;5039186;28;20201;-76
2024/01/18 04:43:34;;;;;;;0.90;0.90;;;-12.70;99.90;;;;;;5037132;28;20197;-77
2024/01/18 04:46:01;;;;;;;1.07;1.07;;;-12.70;99.90;;;;;;5021766;28;20194;-76
2024/01/18 04:48:27;;;;;;;1.00;1.00;;;-12.70;99.90;;;;;;5037480;28;20194;-75
2024/01/18 04:50:52;;;;;;;1.00;1.00;;;-12.50;99.90;;;;;;5020522;28;20200;-78
2024/01/18 04:53:18;;;;;;;0.90;0.90;;;-12.40;99.90;;;;;;5038036;28;20269;-76
2024/01/18 04:55:44;;;;;;;1.00;1.00;;;-12.40;99.90;;;;;;5016999;28;20198;-77
2024/01/18 04:58:10;;;;;;;0.90;0.90;;;-12.40;99.90;;;;;;5051608;28;20182;-77
2024/01/18 05:00:35;;;;;;;0.90;0.90;;;-12.50;99.90;;;;;;5040833;28;20676;-75
2024/01/18 05:03:01;;;;;;;0.90;0.90;;;-12.50;99.90;;;;;;5015797;28;20293;-76
2024/01/18 05:05:27;;;;;;;0.90;0.90;;;-12.60;99.90;;;;;;5032561;28;20197;-76
2024/01/18 05:07:52;;;;;;;1.00;1.00;;;-12.60;99.90;;;;;;5015932;28;20202;-76
2024/01/18 05:10:18;;;;;;;1.00;1.00;;;-12.60;99.90;;;;;;5033901;28;20258;-75
2024/01/18 05:12:45;;;;;;;0.90;0.90;;;-12.60;99.90;;;;;;5052144;28;20210;-80
2024/01/18 05:15:11;;;;;;;1.00;1.00;;;-12.80;99.90;;;;;;5037836;28;20182;-79
2024/01/18 05:17:39;;;;;;;1.00;1.00;;;-12.90;99.90;;;;;;5037666;28;20209;-76
2024/01/18 05:20:06;;;;;;;1.00;1.00;;;-13.00;99.90;;;;;;5056359;28;20763;-77
2024/01/18 05:22:33;;;;;;;1.00;1.00;;;-13.10;99.90;;;;;;5056539;28;20440;-78
2024/01/18 05:25:00;;;;;;;0.90;0.90;;;-13.10;99.90;;;;;;5056470;28;20198;-78
2024/01/18 05:27:29;;;;;;;0.90;0.90;;;-13.00;99.90;;;;;;5035085;28;20260;-76
2024/01/18 05:29:58;;;;;;;1.00;1.00;;;-13.00;99.90;;;;;;5053524;28;20206;-76
2024/01/18 05:32:24;;;;;;;0.90;0.90;;;-13.20;99.90;;;;;;5035598;28;20266;-78
2024/01/18 05:34:50;;;;;;;0.90;0.90;;;-13.30;99.90;;;;;;5049736;28;20897;-75
2024/01/18 05:37:17;;;;;;;0.90;0.90;;;-13.40;99.90;;;;;;5017857;28;20580;-74
2024/01/18 05:39:42;;;;;;;0.90;0.90;;;-13.50;99.90;;;;;;5034916;28;20231;-75
2024/01/18 05:42:08;;;;;;;1.03;1.03;;;-13.40;99.90;;;;;;5033408;28;20615;-74
2024/01/18 05:44:34;;;;;;;0.93;0.93;;;-13.30;99.90;;;;;;5033186;28;20194;-75
2024/01/18 05:47:00;;;;;;;1.00;1.00;;;-13.30;99.90;;;;;;5032315;28;20274;-75
2024/01/18 05:49:26;;;;;;;0.90;0.90;;;-13.20;99.90;;;;;;5031496;28;20229;-75
2024/01/18 05:51:52;;;;;;;0.97;0.97;;;-13.20;99.90;;;;;;5031629;28;20206;-76
2024/01/18 05:54:17;;;;;;;0.90;0.90;;;-13.30;99.90;;;;;;5031700;28;20611;-76
2024/01/18 05:56:46;;;;;;;0.90;0.90;;;-13.30;99.90;;;;;;5032549;28;20487;-75
2024/01/18 05:59:12;;;;;;;0.90;0.90;;;-13.10;99.90;;;;;;5029315;28;20220;-76
2024/01/18 06:01:37;;;;;;;1.00;1.00;;;-13.20;99.90;;;;;;5014256;28;20210;-75
2024/01/18 06:04:03;;;;;;;1.10;1.10;;;-13.30;99.90;;;;;;5032723;28;20528;-76
2024/01/18 06:06:31;;;;;;;0.90;0.90;;;-13.40;99.90;;;;;;5032736;28;20686;-75
2024/01/18 06:08:57;;;;;;;0.90;0.90;;;-13.50;99.90;;;;;;5032542;28;20205;-74
2024/01/18 06:11:23;;;;;;;0.90;0.90;;;-13.50;99.90;;;;;;5014160;28;20225;-75
2024/01/18 06:13:48;;;;;;;1.00;1.00;;;-13.30;99.90;;;;;;5032484;28;20197;-75
2024/01/18 06:16:15;;;;;;;0.90;0.90;;;-13.30;99.90;;;;;;5032455;28;20198;-74
2024/01/18 06:18:42;;;;;;;0.90;0.90;;;-13.00;99.90;;;;;;5014270;28;20228;-75
2024/01/18 06:21:11;;;;;;;0.90;0.90;;;-12.90;99.90;;;;;;5032277;28;20195;-76
2024/01/18 06:23:37;;;;;;;0.90;0.90;;;-12.80;99.90;;;;;;5032354;28;20197;-75
2024/01/18 06:26:07;;;;;;;0.90;0.90;;;-12.80;99.90;;;;;;5032532;28;20190;-74
2024/01/18 06:28:33;;;;;;;0.90;0.90;;;-12.80;99.90;;;;;;5014354;28;20224;-75
2024/01/18 06:30:59;;;;;;;0.97;0.97;;;-12.80;99.90;;;;;;5014793;28;20201;-75
2024/01/18 06:33:26;;;;;;;1.00;1.00;;;-12.90;99.90;;;;;;5031974;28;20226;-75
2024/01/18 06:35:52;;;;;;;1.00;1.00;;;-12.90;99.90;;;;;;5014471;28;20206;-75
2024/01/18 06:38:20;;;;;;;1.00;1.00;;;-12.90;99.90;;;;;;5035192;28;20205;-75
2024/01/18 06:40:46;;;;;;;1.00;1.00;;;-12.80;99.90;;;;;;5051934;28;20559;-74
2024/01/18 06:43:12;;;;;;;1.00;1.00;;;-12.70;99.90;;;;;;5052073;28;20669;-76
2024/01/18 06:45:37;;;;;;;0.90;0.90;;;-12.80;99.90;;;;;;5033851;28;20229;-75
2024/01/18 06:48:03;;;;;;;1.00;1.00;;;-12.80;99.90;;;;;;5033997;28;20201;-76
2024/01/18 06:50:28;;;;;;;1.00;1.00;;;-12.90;99.90;;;;;;5034202;28;20201;-75
2024/01/18 06:52:54;;;;;;;1.00;1.00;;;-13.00;99.90;;;;;;5052303;28;20198;-74
2024/01/18 06:55:21;;;;;;;1.00;1.00;;;-13.10;99.90;;;;;;5047199;28;20191;-75
2024/01/18 06:57:49;;;;;;;0.90;0.90;;;-13.10;99.90;;;;;;5032051;28;20194;-75
2024/01/18 07:00:24;;;;;;;0.90;0.90;;;-13.00;99.90;;;;;;5031830;28;20221;-76
2024/01/18 07:02:51;;;;;;;0.90;0.90;;;-12.80;99.90;;;;;;5031836;28;20726;-74
2024/01/18 07:05:17;;;;;;;0.80;0.80;;;-12.70;99.90;;;;;;5031769;28;20195;-75
2024/01/18 07:07:43;;;;;;;0.90;0.90;;;-12.60;99.90;;;;;;5013797;28;20205;-75
2024/01/18 07:10:09;;;;;;;0.90;0.90;;;-12.60;99.90;;;;;;5031158;28;20245;-74
2024/01/18 07:12:35;;;;;;;0.90;0.90;;;-12.30;99.90;;;;;;5021267;28;20293;-74
2024/01/18 07:15:01;;;;;;;0.90;0.90;;;-12.30;99.90;;;;;;5035780;28;20277;-76
2024/01/18 07:17:26;;;;;;;1.00;1.00;;;-12.40;99.90;;;;;;5035516;28;20237;-76
2024/01/18 07:19:53;;;;;;;0.90;0.90;;;-12.20;99.90;;;;;;5035986;28;20202;-76
2024/01/18 07:22:18;;;;;;;0.90;0.90;;;-12.20;99.90;;;;;;5034890;28;20271;-76
2024/01/18 07:24:44;;;;;;;0.90;0.90;;;-12.30;99.90;;;;;;5018623;28;20198;-76
2024/01/18 07:27:10;;;;;;;0.90;0.90;;;-12.40;99.90;;;;;;5021538;28;20208;-76
2024/01/18 07:29:36;;;;;;;0.90;0.90;;;-12.50;99.90;;;;;;5037394;28;20202;-76
2024/01/18 07:32:02;;;;;;;1.00;1.00;;;-12.60;99.90;;;;;;5037159;28;20604;-76
2024/01/18 07:34:28;;;;;;;0.90;0.90;;;-12.50;99.90;;;;;;5037075;28;20198;-76
2024/01/18 07:36:55;;;;;;;0.90;0.90;;;-12.40;99.90;;;;;;5037980;28;20198;-75
2024/01/18 07:39:21;;;;;;;0.90;0.90;;;-12.30;99.90;;;;;;5036975;28;20316;-76
2024/01/18 07:41:47;;;;;;;0.90;0.90;;;-12.40;99.90;;;;;;5037867;28;20198;-76
2024/01/18 07:44:12;;;;;;;0.90;0.90;;;-12.40;99.90;;;;;;5038461;28;20226;-76
2024/01/18 07:46:38;;;;;;;0.93;0.93;;;-12.60;99.90;;;;;;5036717;28;20680;-76
2024/01/18 07:49:04;;;;;;;1.00;1.00;;;-12.70;99.90;;;;;;5037973;28;20205;-76
2024/01/18 07:51:30;;;;;;;1.00;1.00;;;-12.80;99.90;;;;;;5037871;28;20206;-76
2024/01/18 07:53:56;;;;;;;0.90;0.90;;;-12.90;99.90;;;;;;5018417;28;20222;-76
2024/01/18 07:56:21;;;;;;;0.90;0.90;;;-12.90;99.90;;;;;;5018452;28;20313;-76
2024/01/18 07:58:47;;;;;;;1.00;1.00;;;-12.70;99.90;;;;;;5018827;28;20210;-76
2024/01/18 08:01:16;;;;;;;1.00;1.00;;;-12.70;99.90;;;;;;5019252;28;20217;-76
2024/01/18 08:03:42;;;;;;;0.90;0.90;;;-12.70;99.90;;;;;;5035757;28;20549;-76
2024/01/18 08:06:08;;;;;;;1.00;1.00;;;-12.60;99.90;;;;;;5037506;28;20248;-77
2024/01/18 08:08:34;;;;;;;0.90;0.90;;;-12.60;99.90;;;;;;5038475;28;20229;-75
2024/01/18 08:10:59;;;;;;;0.90;0.90;;;-12.70;99.90;;;;;;5034505;28;20237;-76
2024/01/18 08:13:25;;;;;;;1.00;1.00;;;-12.80;99.90;;;;;;5036079;28;20194;-76
2024/01/18 08:15:51;;;;;;;0.90;0.90;;;-12.70;99.90;;;;;;5038297;28;20194;-76
2024/01/18 08:18:17;;;;;;;1.00;1.00;;;-12.70;99.90;;;;;;5020783;28;20202;-76
2024/01/18 08:20:43;;;;;;;0.90;0.90;;;-12.70;99.90;;;;;;5038520;28;20190;-75
2024/01/18 08:23:11;;;;;;;0.90;0.90;;;-12.50;99.90;;;;;;5037823;28;20285;-76
2024/01/18 08:25:37;;;;;;;1.00;1.00;;;-12.40;99.90;;;;;;5036506;28;20206;-76
2024/01/18 08:28:03;;;;;;;1.00;1.00;;;-12.30;99.90;;;;;;5036539;28;20198;-76
2024/01/18 08:30:29;;;;;;;1.00;1.00;;;-12.10;99.90;;;;;;5019129;28;20559;-76
2024/01/18 08:32:55;;;;;;;1.00;1.00;;;-12.00;99.90;;;;;;5056237;28;20201;-77
2024/01/18 08:35:21;;;;;;;1.00;1.00;;;-12.00;99.90;;;;;;5054569;28;20232;-76
2024/01/18 08:37:48;;;;;;;0.90;0.90;;;-12.10;99.90;;;;;;5054688;28;20599;-76
2024/01/18 08:40:14;;;;;;;0.80;0.80;;;-12.00;99.90;;;;;;5055248;28;20229;-77
2024/01/18 08:42:45;;;;;;;0.90;0.90;;;-11.80;99.90;;;;;;5036522;28;20280;-76
2024/01/18 08:45:11;;;;;;;0.90;0.90;;;-11.90;99.90;;;;;;5054220;28;20199;-76
2024/01/18 08:47:37;;;;;;;1.00;1.00;;;-12.00;99.90;;;;;;5051875;28;20194;-76
2024/01/18 08:50:03;;;;;;;1.00;1.00;;;-12.00;99.90;;;;;;5034176;28;20191;-76
2024/01/18 08:52:29;;;;;;;0.83;0.83;;;-12.00;99.90;;;;;;5033635;28;20293;-76
2024/01/18 08:54:54;;;;;;;1.00;1.00;;;-12.10;99.90;;;;;;5034544;28;20641;-75
2024/01/18 08:57:20;;;;;;;0.90;0.90;;;-11.90;99.90;;;;;;5033708;28;20236;-76
2024/01/18 08:59:46;;;;;;;1.00;1.00;;;-11.60;99.90;;;;;;5016132;28;20214;-76
2024/01/18 09:02:11;;;;;;;1.00;1.00;;;-11.50;99.90;;;;;;5021406;28;20198;-76
2024/01/18 09:04:38;;;;;;;1.00;1.00;;;-11.20;99.90;;;;;;5038020;28;20202;-76
2024/01/18 09:07:03;;;;;;;0.90;0.90;;;-10.70;99.90;;;;;;5038352;28;20265;-76
2024/01/18 09:09:29;;;;;;;1.00;1.00;;;-10.40;99.90;;;;;;5037831;28;20263;-77
2024/01/18 09:11:55;;;;;;;1.00;1.00;;;-10.20;99.90;;;;;;5038213;28;20265;-76
2024/01/18 09:14:21;;;;;;;0.90;0.90;;;-10.30;99.90;;;;;;5037653;28;20609;-76
2024/01/18 09:16:46;;;;;;;0.90;0.90;;;-10.20;99.90;;;;;;5018264;28;20198;-76
2024/01/18 09:19:12;;;;;;;0.90;0.90;;;-10.30;99.90;;;;;;5033900;28;20210;-77
2024/01/18 09:21:42;;;;;;;1.00;1.00;;;-10.20;99.90;;;;;;5034722;28;20201;-76
2024/01/18 09:24:08;;;;;;;0.90;0.90;;;-10.10;99.90;;;;;;5017149;28;20541;-76
2024/01/18 09:26:34;;;;;;;0.90;0.90;;;-9.90;99.90;;;;;;5014945;28;20248;-77
2024/01/18 09:28:59;;;;;;;0.90;0.90;;;-9.90;99.90;;;;;;5033456;28;20195;-76
2024/01/18 09:31:25;;;;;;;0.90;0.90;;;-9.90;99.90;;;;;;5034822;28;20662;-76
2024/01/18 09:33:50;;;;;;;0.90;0.90;;;-9.90;99.90;;;;;;5036136;28;20202;-76
2024/01/18 09:36:16;;;;;;;0.90;0.90;;;-9.90;99.90;;;;;;5031848;28;20198;-77
2024/01/18 09:38:42;;;;;;;0.90;0.90;;;-9.90;99.90;;;;;;5032921;28;20289;-77
2024/01/18 09:41:09;;;;;;;1.00;1.00;;;-9.80;99.90;;;;;;5033748;28;20198;-76
2024/01/18 09:43:42;;;;;;;0.90;0.90;;;-9.90;99.90;;;;;;5033517;28;20197;-77
2024/01/18 09:46:09;;;;;;;0.90;0.90;;;-10.00;99.90;;;;;;4997208;28;20199;-77
2024/01/18 09:48:35;;;;;;;1.00;1.00;;;-10.00;99.90;;;;;;4996921;28;20249;-77
2024/01/18 09:51:06;;;;;;;0.90;0.90;;;-10.00;99.90;;;;;;5014652;28;20790;-76
2024/01/18 09:53:32;;;;;;;0.90;0.90;;;-10.00;99.90;;;;;;5014466;28;20226;-77
2024/01/18 09:56:21;;;;;;;1.00;1.00;;;-9.90;99.90;;;;;;5018894;28;20662;-78
2024/01/18 09:58:47;;;;;;;1.00;1.00;;;-9.70;99.90;;;;;;5008920;28;20202;-78
2024/01/18 10:01:19;;;;;;;1.00;1.00;;;-9.60;99.90;;;;;;5009471;28;20222;-77
2024/01/18 10:03:45;;;;;;;0.90;0.90;;;-9.60;99.90;;;;;;5027578;28;20202;-78
2024/01/18 10:06:11;;;;;;;0.90;0.90;;;-9.50;99.90;;;;;;5028245;28;20187;-79
2024/01/18 10:08:36;;;;;;;0.90;0.90;;;-9.40;99.90;;;;;;5024948;28;20203;-77
2024/01/18 10:11:02;;;;;;;0.90;0.90;;;-9.40;99.90;;;;;;5022480;28;20585;-78
2024/01/18 10:13:28;;;;;;;0.90;0.90;;;-9.30;99.90;;;;;;5004159;28;20206;-78
2024/01/18 10:15:53;;;;;;;0.90;0.90;;;-9.20;99.90;;;;;;4997796;28;20700;-78
2024/01/18 10:18:19;;;;;;;0.93;0.93;;;-9.10;99.90;;;;;;5013598;28;20240;-77
2024/01/18 10:20:47;;;;;;;1.00;1.00;;;-9.00;99.90;;;;;;5013083;28;20199;-77
2024/01/18 10:23:13;;;;;;;0.90;0.90;;;-9.00;99.90;;;;;;4999898;28;20259;-78
2024/01/18 10:25:40;;;;;;;0.90;0.90;;;-8.90;99.90;;;;;;5031089;28;20336;-78
2024/01/18 10:28:06;;;;;;;0.90;0.90;;;-8.80;99.90;;;;;;5031524;28;20689;-77
2024/01/18 10:30:33;;;;;;;1.00;1.00;;;-8.70;99.90;;;;;;5030565;28;20649;-78
2024/01/18 10:33:00;;;;;;;1.00;1.00;;;-8.60;99.90;;;;;;5031994;28;20194;-78
2024/01/18 10:35:28;;;;;;;1.00;1.00;;;-8.50;99.90;;;;;;5030435;28;20670;-77
2024/01/18 10:38:05;;;;;;;1.00;1.00;;;-8.50;99.90;;;;;;5031902;28;20260;-77
2024/01/18 10:40:36;;;;;;;1.00;1.00;;;-8.50;99.90;;;;;;5027752;28;20205;-77
2024/01/18 10:43:04;;;;;;;1.00;1.00;;;-8.50;99.90;;;;;;5031866;28;20186;-78
2024/01/18 10:45:33;;;;;;;0.83;0.83;;;-8.70;99.90;;;;;;5013821;28;20248;-78
2024/01/18 10:47:59;;;;;;;0.90;0.90;;;-8.70;99.90;;;;;;5031739;28;20190;-78
2024/01/18 10:50:26;;;;;;;1.00;1.00;;;-8.70;99.90;;;;;;5031283;28;20209;-78
2024/01/18 10:52:52;;;;;;;0.90;0.90;;;-8.70;99.90;;;;;;5031332;28;20214;-78
2024/01/18 10:55:18;;;;;;;0.80;0.80;;;-8.80;99.90;;;;;;5031146;28;20221;-78
2024/01/18 10:57:44;;;;;;;1.00;1.00;;;-8.90;99.90;;;;;;5013630;28;20205;-78
2024/01/18 11:00:16;;;;;;;1.00;1.00;;;-8.80;99.90;;;;;;5031246;28;20627;-78
2024/01/18 11:02:44;;;;;;;0.90;0.90;;;-8.80;99.90;;;;;;5029713;28;20194;-78
2024/01/18 11:05:12;;;;;;;1.00;1.00;;;-8.80;99.90;;;;;;5031725;28;20284;-75
2024/01/18 11:07:42;;;;;;;1.00;1.00;;;-8.60;99.90;;;;;;5030236;28;20206;-75
2024/01/18 11:10:12;;;;;;;0.90;0.90;;;-8.70;99.90;;;;;;5031487;28;20222;-74
2024/01/18 11:13:34;;;;;;;1.00;1.00;;;-8.90;99.90;;;;;;5014139;28;20355;-75
2024/01/18 11:16:00;;;;;;;0.97;0.97;;;-9.10;99.90;;;;;;5031785;28;20746;-74
2024/01/18 11:18:26;;;;;;;1.00;1.00;;;-9.20;99.90;;;;;;5031421;28;20328;-74
2024/01/18 11:20:58;;;;;;;1.00;1.00;;;-9.20;99.90;;;;;;5025206;28;20206;-75
2024/01/18 11:23:28;;;;;;;0.90;0.90;;;-9.20;99.90;;;;;;5031282;28;20198;-75
2024/01/18 11:25:54;;;;;;;0.90;0.90;;;-9.10;99.90;;;;;;5031343;28;20194;-76
2024/01/18 11:28:24;;;;;;;0.90;0.90;;;-9.00;99.90;;;;;;5031002;28;20689;-76
2024/01/18 11:30:50;;;;;;;1.00;1.00;;;-9.10;99.90;;;;;;5030834;28;20194;-75
2024/01/18 11:33:15;;;;;;;0.90;0.90;;;-9.30;99.90;;;;;;5031183;28;20198;-76
2024/01/18 11:35:42;;;;;;;1.00;1.00;;;-9.40;99.90;;;;;;5029690;28;20229;-76
2024/01/18 11:38:32;;;;;;;0.90;0.90;;;-9.40;99.90;;;;;;5031024;28;20662;-76
2024/01/18 11:41:11;;;;;;;1.00;1.00;;;-9.40;99.90;;;;;;5031351;28;20202;-74
2024/01/18 11:44:02;;;;;;;0.93;0.93;;;-9.40;99.90;;;;;;5030948;28;20567;-74
2024/01/18 11:46:41;;;;;;;0.93;0.93;;;-9.50;99.90;;;;;;5029423;28;20198;-76
2024/01/18 11:49:07;;;;;;;0.90;0.90;;;-9.60;99.90;;;;;;5029369;28;20198;-75
2024/01/18 11:51:34;;;;;;;1.00;1.00;;;-9.50;99.90;;;;;;5030396;28;20241;-75
2024/01/18 11:54:02;;;;;;;1.00;1.00;;;-9.40;99.90;;;;;;5031179;28;20206;-76
2024/01/18 11:56:28;;;;;;;1.00;1.00;;;-9.30;99.90;;;;;;5030747;28;20194;-75
2024/01/18 11:58:57;;;;;;;1.00;1.00;;;-9.30;99.90;;;;;;5031254;28;20583;-74
2024/01/18 12:01:23;;;;;;;0.90;0.90;;;-9.20;99.90;;;;;;5032853;28;20575;-74
2024/01/18 12:03:49;;;;;;;1.00;1.00;;;-9.00;99.90;;;;;;5034484;28;20241;-75
2024/01/18 12:06:15;;;;;;;1.00;1.00;;;-8.80;99.90;;;;;;5032921;28;20202;-77
2024/01/18 12:08:43;;;;;;;0.90;0.90;;;-8.60;99.90;;;;;;5033829;28;20902;-75
2024/01/18 12:11:09;;;;;;;0.90;0.90;;;-8.70;99.90;;;;;;5034234;28;20214;-74
2024/01/18 12:13:35;;;;;;;0.83;0.83;;;-8.70;99.90;;;;;;5034272;28;20201;-74
2024/01/18 12:16:01;;;;;;;0.90;0.90;;;-8.80;99.90;;;;;;5029433;28;20355;-81
2024/01/18 12:18:38;;;;;;;0.90;0.90;;;-9.00;99.90;;;;;;5033614;28;20222;-83
2024/01/18 12:21:04;;;;;;;1.00;1.00;;;-9.00;99.90;;;;;;5015851;28;20198;-83
2024/01/18 12:23:30;;;;;;;0.90;0.90;;;-9.00;99.90;;;;;;5015988;28;20204;-82
2024/01/18 12:25:56;;;;;;;0.93;0.93;;;-9.10;99.90;;;;;;5034038;28;20249;-80
2024/01/18 12:28:22;;;;;;;0.90;0.90;;;-8.90;99.90;;;;;;5033368;28;20645;-83
2024/01/18 12:30:48;;;;;;;1.00;1.00;;;-9.00;99.90;;;;;;5033761;28;20222;-82
2024/01/18 12:33:14;;;;;;;1.00;1.00;;;-8.90;99.90;;;;;;5015417;28;20252;-81
2024/01/18 12:35:40;;;;;;;1.00;1.00;;;-9.10;99.90;;;;;;5031938;28;20196;-84
2024/01/18 12:38:07;;;;;;;1.00;1.00;;;-9.10;99.90;;;;;;5033670;28;20228;-83